Terminal Aerodrome Forecast
Issued by NWS Central Illinois

Home | Current Version | Previous Version | Text Only | Print | Product List | Glossary On
Versions: 1 2 3 4 5 6 7 8 9 10 11 12 13 14 15 16
177
FTUS43 KILX 061740
TAFPIA
TAF
KPIA 061740Z 0618/0718 19007KT P6SM FEW040
     FM061900 23009KT P6SM SCT045
     FM070200 21007KT P6SM BKN250
     FM070700 22010KT P6SM BKN110
     FM071300 25012G17KT P6SM BKN100=

USA.gov is the U.S. government's official web portal to all federal, state and local government web resources and services.